createdAt,value
2018-12-25T00:00:37.093Z,1.09
2018-12-25T00:01:37.324Z,1.00
2018-12-25T00:03:41.488Z,1.14
2018-12-25T00:04:41.721Z,1.24
2018-12-25T00:06:47.794Z,1.26
2018-12-25T00:07:46.115Z,1.27
2018-12-25T00:09:50.251Z,1.32
2018-12-25T00:10:50.486Z,1.26
2018-12-25T00:12:54.656Z,1.20
2018-12-25T00:13:54.872Z,1.27
2018-12-25T00:15:59.010Z,1.24
2018-12-25T00:16:59.243Z,1.24
2018-12-25T00:19:06.206Z,1.26
2018-12-25T00:20:03.636Z,1.20
2018-12-25T00:22:07.801Z,1.15
2018-12-25T00:23:08.028Z,1.22
2018-12-25T00:25:01.111Z,1.15
2018-12-25T00:26:01.333Z,0.96
2018-12-25T00:28:05.502Z,1.22
2018-12-25T00:29:05.731Z,1.14
2018-12-25T00:31:09.875Z,1.16
2018-12-25T00:32:10.105Z,1.14
2018-12-25T00:34:14.272Z,1.09
2018-12-25T00:35:14.506Z,0.98
2018-12-25T00:37:18.667Z,0.98
2018-12-25T00:38:18.898Z,0.98
2018-12-25T00:40:23.037Z,1.15
2018-12-25T00:41:23.269Z,1.12
2018-12-25T00:43:27.438Z,1.15
2018-12-25T00:44:27.670Z,1.16
2018-12-25T00:46:31.813Z,1.22
2018-12-25T00:47:32.044Z,1.22
2018-12-25T00:49:36.205Z,1.23
2018-12-25T00:50:36.437Z,1.22
2018-12-25T00:52:40.598Z,1.26
2018-12-25T00:53:40.830Z,1.23
2018-12-25T00:55:44.972Z,1.26
2018-12-25T00:56:45.204Z,1.36
2018-12-25T00:58:49.364Z,1.30
2018-12-25T00:59:49.595Z,1.30
2018-12-25T01:01:53.734Z,1.32
2018-12-25T01:02:53.967Z,1.33
2018-12-25T01:04:47.054Z,1.36
2018-12-25T01:05:47.290Z,1.34
2018-12-25T01:07:51.427Z,1.40
2018-12-25T01:08:51.658Z,1.41
2018-12-25T01:10:55.822Z,1.37
2018-12-25T01:11:56.055Z,1.44
2018-12-25T01:14:00.222Z,1.41
2018-12-25T01:15:00.455Z,1.47
2018-12-25T01:17:04.596Z,1.50
2018-12-25T01:18:04.827Z,1.45
2018-12-25T01:20:08.989Z,1.47
2018-12-25T01:21:09.221Z,1.42
2018-12-25T01:23:13.394Z,1.47
2018-12-25T01:24:13.620Z,1.41
2018-12-25T01:26:17.764Z,1.42
2018-12-25T01:27:17.995Z,1.36
2018-12-25T01:29:22.158Z,1.33
2018-12-25T01:30:22.389Z,1.33
2018-12-25T01:32:26.535Z,1.30
2018-12-25T01:33:26.767Z,1.34
2018-12-25T01:35:30.932Z,1.32
2018-12-25T01:36:31.164Z,1.30
2018-12-25T01:38:35.401Z,1.32
2018-12-25T01:39:35.568Z,1.34
2018-12-25T01:41:39.705Z,1.36
2018-12-25T01:42:39.937Z,1.32
2018-12-25T01:44:33.026Z,1.40
2018-12-25T01:45:33.256Z,1.34
2018-12-25T01:47:37.407Z,1.37
2018-12-25T01:48:37.639Z,1.47
2018-12-25T01:50:41.806Z,1.47
2018-12-25T01:51:42.036Z,1.44
2018-12-25T01:53:46.179Z,1.52
2018-12-25T01:54:46.411Z,1.55
2018-12-25T01:56:50.575Z,1.65
2018-12-25T01:57:50.808Z,1.60
2018-12-25T01:59:54.977Z,1.62
2018-12-25T02:00:55.209Z,1.62
2018-12-25T02:02:59.357Z,1.51
2018-12-25T02:03:59.587Z,1.52
2018-12-25T02:06:04.842Z,1.37
2018-12-25T02:07:04.993Z,1.42
2018-12-25T02:09:09.132Z,1.40
2018-12-25T02:10:09.364Z,1.33
2018-12-25T02:12:13.526Z,1.42
2018-12-25T02:13:13.756Z,1.42
2018-12-25T02:15:17.920Z,1.36
2018-12-25T02:16:18.151Z,1.36
2018-12-25T02:18:22.291Z,1.45
2018-12-25T02:19:22.522Z,1.32
2018-12-25T02:21:26.690Z,1.34
2018-12-25T02:22:26.920Z,1.40
2018-12-25T02:24:19.990Z,1.34
2018-12-25T02:25:20.220Z,1.44
2018-12-25T02:27:24.383Z,1.34
2018-12-25T02:28:24.618Z,1.36
2018-12-25T02:30:28.779Z,1.44
2018-12-25T02:31:29.009Z,1.45
2018-12-25T02:33:33.159Z,1.41
2018-12-25T02:34:33.393Z,1.36
2018-12-25T02:36:37.555Z,1.50
2018-12-25T02:37:37.788Z,1.60
2018-12-25T02:39:41.930Z,1.62
2018-12-25T02:40:42.161Z,1.55
2018-12-25T02:42:46.328Z,1.63
2018-12-25T02:43:46.557Z,1.62
2018-12-25T02:45:50.727Z,1.62
2018-12-25T02:46:50.957Z,1.62
2018-12-25T02:48:55.098Z,1.51
2018-12-25T02:49:55.330Z,1.54
2018-12-25T02:51:59.495Z,1.51
2018-12-25T02:52:59.730Z,1.59
2018-12-25T02:54:52.804Z,1.60
2018-12-25T02:55:53.039Z,1.68
2018-12-25T02:57:57.204Z,1.59
2018-12-25T02:58:57.439Z,1.69
2018-12-25T03:01:01.598Z,1.65
2018-12-25T03:02:01.828Z,1.70
2018-12-25T03:04:05.971Z,1.68
2018-12-25T03:05:06.210Z,1.68
2018-12-25T03:07:10.371Z,1.65
2018-12-25T03:08:10.601Z,1.60
2018-12-25T03:10:14.740Z,1.63
2018-12-25T03:11:14.970Z,1.63
2018-12-25T03:13:19.141Z,1.73
2018-12-25T03:14:19.364Z,1.68
2018-12-25T03:16:23.528Z,1.68
2018-12-25T03:17:23.758Z,1.63
2018-12-25T03:19:27.899Z,1.66
2018-12-25T03:20:28.134Z,1.68
2018-12-25T03:22:32.296Z,1.66
2018-12-25T03:23:32.530Z,1.63
2018-12-25T03:25:36.670Z,1.68
2018-12-25T03:26:36.904Z,1.68
2018-12-25T03:28:41.064Z,1.65
2018-12-25T03:29:41.299Z,1.70
2018-12-25T03:31:45.469Z,1.70
2018-12-25T03:32:45.711Z,1.70
2018-12-25T03:34:38.765Z,1.73
2018-12-25T03:35:38.999Z,1.77
2018-12-25T03:37:43.159Z,1.77
2018-12-25T03:38:43.391Z,1.76
2018-12-25T03:40:47.532Z,1.80
2018-12-25T03:41:47.758Z,1.79
2018-12-25T03:43:51.923Z,1.86
2018-12-25T03:44:52.171Z,1.87
2018-12-25T03:46:56.297Z,2.02
2018-12-25T03:47:56.528Z,1.99
2018-12-25T03:50:11.343Z,2.02
2018-12-25T03:51:00.872Z,1.98
2018-12-25T03:53:05.044Z,2.09
2018-12-25T03:54:05.275Z,1.95
2018-12-25T03:56:09.440Z,2.10
2018-12-25T03:57:09.676Z,2.05
2018-12-25T03:59:13.812Z,2.03
2018-12-25T04:00:14.050Z,2.07
2018-12-25T04:02:18.216Z,2.10
2018-12-25T04:03:18.448Z,2.05
2018-12-25T04:05:22.614Z,2.05
2018-12-25T04:06:22.844Z,1.95
2018-12-25T04:08:26.991Z,2.09
2018-12-25T04:09:27.230Z,2.06
2018-12-25T04:11:31.385Z,1.88
2018-12-25T04:12:31.620Z,2.02
2018-12-25T04:14:24.692Z,1.90
2018-12-25T04:15:24.923Z,1.93
2018-12-25T04:17:29.088Z,1.93
2018-12-25T04:18:29.323Z,1.90
2018-12-25T04:20:33.498Z,2.05
2018-12-25T04:21:33.734Z,1.95
2018-12-25T04:23:37.882Z,1.90
2018-12-25T04:24:38.113Z,1.95
2018-12-25T04:26:42.286Z,2.00
2018-12-25T04:27:42.521Z,1.99
2018-12-25T04:29:46.666Z,1.98
2018-12-25T04:30:46.899Z,2.00
2018-12-25T04:32:51.062Z,1.93
2018-12-25T04:33:51.296Z,1.90
2018-12-25T04:35:55.472Z,2.02
2018-12-25T04:36:55.709Z,2.07
2018-12-25T04:38:59.856Z,2.00
2018-12-25T04:40:00.157Z,1.99
2018-12-25T04:42:04.278Z,2.05
2018-12-25T04:43:04.518Z,1.95
2018-12-25T04:44:57.588Z,1.77
2018-12-25T04:45:57.823Z,1.73
2018-12-25T04:48:01.985Z,1.73
2018-12-25T04:49:02.223Z,1.65
2018-12-25T04:51:06.392Z,1.69
2018-12-25T04:52:06.626Z,1.66
2018-12-25T04:54:10.766Z,1.79
2018-12-25T04:55:11.000Z,1.72
2018-12-25T04:57:15.161Z,1.72
2018-12-25T04:58:15.394Z,1.69
2018-12-25T05:00:19.537Z,1.77
2018-12-25T05:01:19.765Z,1.76
2018-12-25T05:03:23.930Z,1.76
2018-12-25T05:04:24.163Z,1.72
2018-12-25T05:06:28.330Z,1.77
2018-12-25T05:07:28.562Z,1.84
2018-12-25T05:09:32.704Z,1.83
2018-12-25T05:10:32.938Z,1.80
2018-12-25T05:12:37.113Z,1.79
2018-12-25T05:13:37.351Z,1.84
2018-12-25T05:15:41.495Z,1.84
2018-12-25T05:16:41.730Z,1.88
2018-12-25T05:18:45.891Z,1.90
2018-12-25T05:19:46.123Z,1.99
2018-12-25T05:21:50.288Z,2.05
2018-12-25T05:22:50.523Z,1.91
2018-12-25T05:24:43.597Z,1.95
2018-12-25T05:25:43.829Z,2.00
2018-12-25T05:27:47.991Z,1.95
2018-12-25T05:28:48.227Z,1.98
2018-12-25T05:30:52.365Z,1.91
2018-12-25T05:31:52.599Z,2.05
2018-12-25T05:33:56.768Z,2.05
2018-12-25T05:34:57.005Z,2.02
2018-12-25T05:37:01.150Z,2.03
2018-12-25T05:38:01.383Z,2.14
2018-12-25T05:40:05.545Z,2.18
2018-12-25T05:41:05.782Z,2.17
2018-12-25T05:43:09.947Z,2.20
2018-12-25T05:44:10.179Z,2.17
2018-12-25T05:46:14.325Z,2.17
2018-12-25T05:47:14.557Z,2.10
2018-12-25T05:49:18.721Z,2.03
2018-12-25T05:50:18.954Z,1.98
2018-12-25T05:52:23.099Z,1.99
2018-12-25T05:53:23.324Z,2.05
2018-12-25T05:55:27.494Z,2.09
2018-12-25T05:56:27.727Z,2.03
2018-12-25T05:58:31.894Z,2.09
2018-12-25T05:59:32.125Z,2.10
2018-12-25T06:01:36.270Z,2.16
2018-12-25T06:02:36.501Z,2.10
2018-12-25T06:04:29.595Z,2.17
2018-12-25T06:05:29.830Z,2.12
2018-12-25T06:07:33.973Z,2.17
2018-12-25T06:08:34.206Z,2.18
2018-12-25T06:10:38.372Z,2.14
2018-12-25T06:11:38.603Z,2.17
2018-12-25T06:13:42.770Z,2.18
2018-12-25T06:14:43.003Z,2.16
2018-12-25T06:16:47.152Z,2.12
2018-12-25T06:17:47.383Z,2.16
2018-12-25T06:19:51.559Z,2.24
2018-12-25T06:20:55.169Z,2.20
2018-12-25T06:22:55.936Z,2.17
2018-12-25T06:23:56.167Z,2.12
2018-12-25T06:26:00.328Z,2.16
2018-12-25T06:27:00.562Z,2.12
2018-12-25T06:29:04.728Z,2.16
2018-12-25T06:30:04.961Z,2.12
2018-12-25T06:32:09.111Z,2.12
2018-12-25T06:33:09.343Z,2.03
2018-12-25T06:35:13.508Z,2.17
2018-12-25T06:36:13.741Z,2.10
2018-12-25T06:38:17.882Z,2.20
2018-12-25T06:39:18.115Z,2.09
2018-12-25T06:41:22.392Z,2.20
2018-12-25T06:42:22.623Z,2.10
2018-12-25T06:44:15.719Z,2.20
2018-12-25T06:45:15.951Z,2.20
2018-12-25T06:47:20.090Z,2.16
2018-12-25T06:48:20.320Z,2.18
2018-12-25T06:50:24.484Z,2.12
2018-12-25T06:51:24.713Z,2.21
2018-12-25T06:53:28.853Z,2.18
2018-12-25T06:54:29.084Z,2.20
2018-12-25T06:56:33.245Z,2.25
2018-12-25T06:57:33.478Z,2.24
2018-12-25T06:59:37.621Z,2.24
2018-12-25T07:00:37.855Z,2.27
2018-12-25T07:02:42.016Z,2.28
2018-12-25T07:03:42.249Z,2.25
2018-12-25T07:05:46.409Z,2.23
2018-12-25T07:06:46.656Z,2.38
2018-12-25T07:08:50.792Z,2.24
2018-12-25T07:09:51.023Z,2.35
2018-12-25T07:11:55.190Z,2.28
2018-12-25T07:12:55.419Z,2.30
2018-12-25T07:14:48.485Z,2.38
2018-12-25T07:15:48.756Z,2.35
2018-12-25T07:17:52.918Z,2.42
2018-12-25T07:18:53.150Z,2.36
2018-12-25T07:20:57.315Z,2.39
2018-12-25T07:21:57.546Z,2.36
2018-12-25T07:24:01.684Z,2.39
2018-12-25T07:25:01.918Z,2.38
2018-12-25T07:27:06.083Z,2.36
2018-12-25T07:28:06.315Z,2.41
2018-12-25T07:30:10.453Z,2.41
2018-12-25T07:31:10.685Z,2.38
2018-12-25T07:33:14.843Z,2.36
2018-12-25T07:34:15.075Z,2.38
2018-12-25T07:36:19.251Z,2.38
2018-12-25T07:37:19.484Z,2.36
2018-12-25T07:39:23.622Z,2.36
2018-12-25T07:40:23.851Z,2.39
2018-12-25T07:42:28.014Z,2.41
2018-12-25T07:43:28.245Z,2.38
2018-12-25T07:45:32.385Z,2.45
2018-12-25T07:46:32.621Z,2.43
2018-12-25T07:48:36.784Z,2.43
2018-12-25T07:49:37.014Z,2.39
2018-12-25T07:51:41.178Z,2.38
2018-12-25T07:52:41.412Z,2.41
2018-12-25T07:54:34.476Z,2.38
2018-12-25T07:55:34.709Z,2.35
2018-12-25T07:57:38.868Z,2.39
2018-12-25T07:58:39.172Z,2.39
2018-12-25T08:00:43.246Z,2.39
2018-12-25T08:01:43.472Z,2.41
2018-12-25T08:03:47.638Z,2.42
2018-12-25T08:04:47.869Z,2.45
2018-12-25T08:06:52.028Z,2.46
2018-12-25T08:07:52.262Z,2.52
2018-12-25T08:09:56.403Z,2.54
2018-12-25T08:10:56.633Z,2.54
2018-12-25T08:13:00.799Z,2.54
2018-12-25T08:14:01.032Z,2.52
2018-12-25T08:16:05.167Z,2.57
2018-12-25T08:17:05.399Z,2.59
2018-12-25T08:19:09.561Z,2.57
2018-12-25T08:20:09.793Z,2.60
2018-12-25T08:22:13.933Z,2.59
2018-12-25T08:23:14.163Z,2.56
2018-12-25T08:25:18.323Z,2.57
2018-12-25T08:26:18.554Z,2.66
2018-12-25T08:28:22.713Z,2.56
2018-12-25T08:29:22.946Z,2.57
2018-12-25T08:31:27.088Z,2.67
2018-12-25T08:32:27.319Z,2.67
2018-12-25T08:34:20.407Z,2.61
2018-12-25T08:35:20.638Z,2.63
2018-12-25T08:37:24.782Z,2.60
2018-12-25T08:38:25.013Z,2.56
2018-12-25T08:40:29.172Z,2.56
2018-12-25T08:41:29.408Z,2.71
2018-12-25T08:43:33.567Z,2.69
2018-12-25T08:44:33.801Z,2.59
2018-12-25T08:46:37.941Z,2.61
2018-12-25T08:47:38.172Z,2.59
2018-12-25T08:49:42.336Z,2.61
2018-12-25T08:50:42.591Z,2.71
2018-12-25T08:52:46.713Z,2.74
2018-12-25T08:53:46.947Z,2.72
2018-12-25T08:55:51.105Z,2.74
2018-12-25T08:56:51.339Z,2.77
2018-12-25T08:58:55.503Z,2.75
2018-12-25T08:59:55.742Z,2.71
2018-12-25T09:01:59.886Z,2.74
2018-12-25T09:03:00.119Z,2.74
2018-12-25T09:04:53.207Z,2.72
2018-12-25T09:05:53.441Z,2.78
2018-12-25T09:07:57.588Z,2.69
2018-12-25T09:08:57.826Z,2.72
2018-12-25T09:11:01.989Z,2.78
2018-12-25T09:12:02.226Z,2.72
2018-12-25T09:14:06.384Z,2.78
2018-12-25T09:15:06.617Z,2.79
2018-12-25T09:17:10.757Z,2.78
2018-12-25T09:18:10.990Z,2.79
2018-12-25T09:20:15.151Z,2.84
2018-12-25T09:21:15.387Z,2.82
2018-12-25T09:23:19.534Z,2.87
2018-12-25T09:24:19.764Z,2.99
2018-12-25T09:26:23.932Z,2.95
2018-12-25T09:27:24.164Z,3.06
2018-12-25T09:29:28.330Z,3.03
2018-12-25T09:30:28.561Z,3.00
2018-12-25T09:32:32.704Z,3.05
2018-12-25T09:33:32.938Z,3.15
2018-12-25T09:35:37.100Z,3.15
2018-12-25T09:36:37.332Z,3.14
2018-12-25T09:38:41.479Z,3.11
2018-12-25T09:39:41.711Z,3.13
2018-12-25T09:41:45.870Z,3.11
2018-12-25T09:42:46.104Z,3.28
2018-12-25T09:44:39.191Z,3.13
2018-12-25T09:45:39.424Z,3.31
2018-12-25T09:47:43.566Z,3.36
2018-12-25T09:48:43.798Z,3.24
2018-12-25T09:50:47.967Z,3.33
2018-12-25T09:51:54.525Z,3.23
2018-12-25T09:53:52.345Z,3.35
2018-12-25T09:54:52.577Z,3.28
2018-12-25T09:56:56.740Z,3.36
2018-12-25T09:57:56.972Z,3.35
2018-12-25T10:00:01.116Z,3.39
2018-12-25T10:01:01.348Z,3.36
2018-12-25T10:03:05.512Z,3.36
2018-12-25T10:04:05.744Z,3.47
2018-12-25T10:06:09.908Z,3.36
2018-12-25T10:07:10.137Z,3.39
2018-12-25T10:09:14.284Z,3.47
2018-12-25T10:10:14.520Z,3.51
2018-12-25T10:12:18.683Z,3.39
2018-12-25T10:13:18.916Z,3.43
2018-12-25T10:15:23.064Z,3.54
2018-12-25T10:16:23.295Z,3.66
2018-12-25T10:18:27.458Z,3.51
2018-12-25T10:19:27.695Z,3.48
2018-12-25T10:21:31.862Z,3.70
2018-12-25T10:22:32.091Z,3.75
2018-12-25T10:24:25.160Z,3.93
2018-12-25T10:25:25.393Z,4.04
2018-12-25T10:27:29.557Z,4.09
2018-12-25T10:28:29.792Z,4.22
2018-12-25T10:30:33.936Z,4.04
2018-12-25T10:31:34.173Z,4.14
2018-12-25T10:33:38.339Z,3.90
2018-12-25T10:34:38.574Z,3.98
2018-12-25T10:36:42.740Z,4.18
2018-12-25T10:37:42.974Z,4.22
2018-12-25T10:39:47.118Z,4.27
2018-12-25T10:40:47.352Z,3.98
2018-12-25T10:42:51.518Z,3.93
2018-12-25T10:43:51.753Z,3.96
2018-12-25T10:45:55.896Z,4.16
2018-12-25T10:46:56.133Z,4.26
2018-12-25T10:49:00.298Z,4.34
2018-12-25T10:50:00.532Z,4.69
2018-12-25T10:52:11.454Z,4.78
2018-12-25T10:53:04.936Z,5.10
2018-12-25T10:54:58.031Z,5.06
2018-12-25T10:55:58.265Z,4.97
2018-12-25T10:58:04.520Z,4.65
2018-12-25T10:59:02.670Z,4.45
2018-12-25T11:01:06.817Z,4.42
2018-12-25T11:02:07.051Z,4.29
2018-12-25T11:04:11.218Z,4.42
2018-12-25T11:05:11.452Z,4.34
2018-12-25T11:07:15.600Z,4.29
2018-12-25T11:08:15.838Z,4.26
2018-12-25T11:10:20.001Z,4.14
2018-12-25T11:11:20.235Z,4.22
2018-12-25T11:13:24.402Z,4.15
2018-12-25T11:14:24.638Z,4.24
2018-12-25T11:16:28.792Z,4.11
2018-12-25T11:17:29.025Z,4.04
2018-12-25T11:19:33.190Z,4.18
2018-12-25T11:20:33.425Z,4.09
2018-12-25T11:22:37.570Z,4.18
2018-12-25T11:23:37.804Z,4.20
2018-12-25T11:25:41.970Z,4.27
2018-12-25T11:26:42.267Z,4.26
2018-12-25T11:28:46.369Z,4.26
2018-12-25T11:29:46.601Z,4.26
2018-12-25T11:31:50.741Z,4.23
2018-12-25T11:32:50.972Z,4.24
2018-12-25T11:34:44.068Z,4.33
2018-12-25T11:35:44.303Z,4.22
2018-12-25T11:37:48.444Z,4.16
2018-12-25T11:38:48.677Z,4.26
2018-12-25T11:40:52.856Z,4.29
2018-12-25T11:41:53.091Z,4.30
2018-12-25T11:43:57.258Z,4.32
2018-12-25T11:44:57.492Z,4.36
2018-12-25T11:47:01.638Z,4.36
2018-12-25T11:48:01.874Z,4.27
2018-12-25T11:50:06.040Z,4.36
2018-12-25T11:51:06.276Z,4.30
2018-12-25T11:53:10.421Z,4.34
2018-12-25T11:54:10.651Z,4.20
2018-12-25T11:56:14.819Z,4.26
2018-12-25T11:57:15.051Z,4.27
2018-12-25T11:59:19.229Z,4.29
2018-12-25T12:00:19.461Z,4.32
2018-12-25T12:02:23.606Z,4.26
2018-12-25T12:03:23.838Z,4.41
2018-12-25T12:05:29.983Z,4.29
2018-12-25T12:06:28.238Z,4.32
2018-12-25T12:08:32.381Z,4.30
2018-12-25T12:09:32.615Z,4.24
2018-12-25T12:11:36.786Z,4.18
2018-12-25T12:12:37.017Z,4.20
2018-12-25T12:14:30.130Z,4.22
2018-12-25T12:15:30.365Z,4.22
2018-12-25T12:17:34.508Z,4.30
2018-12-25T12:18:34.743Z,4.23
2018-12-25T12:20:38.907Z,4.27
2018-12-25T12:21:39.140Z,4.23
2018-12-25T12:23:43.284Z,4.24
2018-12-25T12:24:43.519Z,4.24
2018-12-25T12:26:47.687Z,4.26
2018-12-25T12:27:47.921Z,4.26
2018-12-25T12:29:52.089Z,4.37
2018-12-25T12:30:52.323Z,4.30
2018-12-25T12:32:56.467Z,4.33
2018-12-25T12:33:56.699Z,4.27
2018-12-25T12:36:00.863Z,4.32
2018-12-25T12:37:01.097Z,4.26
2018-12-25T12:39:05.247Z,4.30
2018-12-25T12:40:05.478Z,4.30
2018-12-25T12:42:09.647Z,4.26
2018-12-25T12:43:09.882Z,4.18
2018-12-25T12:45:02.954Z,4.20
2018-12-25T12:46:03.190Z,4.26
2018-12-25T12:48:07.357Z,4.24
2018-12-25T12:49:07.589Z,4.32
2018-12-25T12:51:11.754Z,4.20
2018-12-25T12:52:11.986Z,4.26
2018-12-25T12:54:16.148Z,4.27
2018-12-25T12:55:16.371Z,4.29
2018-12-25T12:57:20.533Z,4.16
2018-12-25T12:58:20.767Z,4.16
2018-12-25T13:00:24.910Z,4.16
2018-12-25T13:01:25.144Z,4.18
2018-12-25T13:03:29.306Z,4.23
2018-12-25T13:04:29.540Z,4.20
2018-12-25T13:06:33.705Z,4.27
2018-12-25T13:07:33.941Z,4.16
2018-12-25T13:09:38.084Z,4.20
2018-12-25T13:10:38.318Z,4.29
2018-12-25T13:12:42.486Z,4.26
2018-12-25T13:13:42.714Z,4.29
2018-12-25T13:15:46.910Z,4.20
2018-12-25T13:16:47.094Z,4.15
2018-12-25T13:18:51.257Z,4.16
2018-12-25T13:19:51.493Z,4.15
2018-12-25T13:21:55.660Z,4.22
2018-12-25T13:22:55.890Z,4.23
2018-12-25T13:24:48.966Z,4.27
2018-12-25T13:25:49.199Z,4.24
2018-12-25T13:27:53.367Z,4.29
2018-12-25T13:28:53.599Z,4.29
2018-12-25T13:30:57.741Z,4.29
2018-12-25T13:31:57.974Z,4.30
2018-12-25T13:34:02.139Z,4.27
2018-12-25T13:35:02.374Z,4.27
2018-12-25T13:37:06.539Z,4.30
2018-12-25T13:38:06.775Z,4.27
2018-12-25T13:40:10.922Z,4.27
2018-12-25T13:41:11.158Z,4.30
2018-12-25T13:43:15.321Z,4.26
2018-12-25T13:44:15.556Z,4.30
2018-12-25T13:46:19.701Z,4.27
2018-12-25T13:47:19.936Z,4.33
2018-12-25T13:49:24.104Z,4.27
2018-12-25T13:50:24.338Z,4.29
2018-12-25T13:52:28.485Z,4.32
2018-12-25T13:53:28.722Z,4.32
2018-12-25T13:55:32.883Z,4.24
2018-12-25T13:56:33.116Z,4.23
2018-12-25T13:58:37.280Z,4.27
2018-12-25T13:59:37.514Z,4.27
2018-12-25T14:01:41.656Z,4.22
2018-12-25T14:02:41.892Z,4.22
2018-12-25T14:04:34.986Z,4.22
2018-12-25T14:05:35.220Z,4.26
2018-12-25T14:07:39.364Z,4.32
2018-12-25T14:08:39.596Z,4.22
2018-12-25T14:10:43.759Z,4.24
2018-12-25T14:11:43.994Z,4.26
2018-12-25T14:13:48.160Z,4.29
2018-12-25T14:14:48.395Z,4.22
2018-12-25T14:16:52.541Z,4.26
2018-12-25T14:17:52.776Z,4.30
2018-12-25T14:19:56.939Z,4.33
2018-12-25T14:20:57.172Z,4.26
2018-12-25T14:23:01.332Z,4.27
2018-12-25T14:24:01.559Z,4.30
2018-12-25T14:26:05.721Z,4.27
2018-12-25T14:27:05.958Z,4.29
2018-12-25T14:29:10.124Z,4.26
2018-12-25T14:30:10.359Z,4.29
2018-12-25T14:32:14.503Z,4.24
2018-12-25T14:33:14.737Z,4.26
2018-12-25T14:35:18.905Z,4.26
2018-12-25T14:36:19.139Z,4.18
2018-12-25T14:38:23.284Z,4.20
2018-12-25T14:39:23.518Z,4.18
2018-12-25T14:41:27.682Z,4.20
2018-12-25T14:42:27.916Z,4.22
2018-12-25T14:44:20.991Z,4.22
2018-12-25T14:45:21.223Z,4.14
2018-12-25T14:47:25.391Z,4.15
2018-12-25T14:48:25.624Z,4.16
2018-12-25T14:50:29.792Z,4.22
2018-12-25T14:51:30.023Z,4.18
2018-12-25T14:53:34.170Z,4.18
2018-12-25T14:54:34.403Z,4.18
2018-12-25T14:56:38.571Z,4.16
2018-12-25T14:57:38.804Z,4.15
2018-12-25T14:59:43.002Z,4.18
2018-12-25T15:00:43.235Z,4.16
2018-12-25T15:02:47.381Z,4.18
2018-12-25T15:03:47.614Z,4.14
2018-12-25T15:05:51.775Z,4.16
2018-12-25T15:06:52.011Z,4.06
2018-12-25T15:08:56.154Z,4.06
2018-12-25T15:09:56.388Z,4.06
2018-12-25T15:12:00.556Z,4.04
2018-12-25T15:13:00.789Z,4.02
2018-12-25T15:14:54.358Z,3.98
2018-12-25T15:15:54.094Z,4.09
2018-12-25T15:17:58.257Z,4.09
2018-12-25T15:18:58.489Z,4.12
2018-12-25T15:21:02.653Z,4.04
2018-12-25T15:22:02.885Z,4.08
2018-12-25T15:24:07.032Z,4.06
2018-12-25T15:25:07.264Z,4.02
2018-12-25T15:27:11.427Z,3.93
2018-12-25T15:28:11.662Z,3.91
2018-12-25T15:30:15.802Z,3.93
2018-12-25T15:31:16.039Z,3.98
2018-12-25T15:33:20.209Z,3.94
2018-12-25T15:34:20.442Z,3.94
2018-12-25T15:36:24.608Z,3.90
2018-12-25T15:37:24.842Z,3.84
2018-12-25T15:39:28.984Z,3.90
2018-12-25T15:40:29.218Z,3.83
2018-12-25T15:42:33.379Z,3.80
2018-12-25T15:43:33.610Z,3.93
2018-12-25T15:45:37.756Z,3.96
2018-12-25T15:46:37.988Z,3.91
2018-12-25T15:48:42.157Z,3.86
2018-12-25T15:49:42.392Z,3.84
2018-12-25T15:51:46.555Z,3.87
2018-12-25T15:52:46.785Z,3.96
2018-12-25T15:54:39.854Z,3.87
2018-12-25T15:55:40.089Z,3.90
2018-12-25T15:57:44.250Z,3.91
2018-12-25T15:58:44.482Z,3.94
2018-12-25T16:00:48.625Z,3.91
2018-12-25T16:01:48.860Z,3.86
2018-12-25T16:03:53.024Z,3.93
2018-12-25T16:04:53.255Z,3.94
2018-12-25T16:06:57.419Z,3.94
2018-12-25T16:07:57.653Z,3.90
2018-12-25T16:10:01.795Z,3.98
2018-12-25T16:11:02.030Z,3.94
2018-12-25T16:13:06.190Z,3.94
2018-12-25T16:14:06.425Z,3.94
2018-12-25T16:16:10.567Z,3.90
2018-12-25T16:17:10.828Z,3.94
2018-12-25T16:19:14.970Z,3.90
2018-12-25T16:20:15.202Z,3.93
2018-12-25T16:22:19.365Z,3.91
2018-12-25T16:23:19.600Z,4.00
2018-12-25T16:25:23.743Z,3.94
2018-12-25T16:26:23.977Z,3.94
2018-12-25T16:28:28.144Z,3.88
2018-12-25T16:29:29.474Z,3.91
2018-12-25T16:31:32.516Z,3.91
2018-12-25T16:32:32.748Z,3.96
2018-12-25T16:34:25.839Z,3.90
2018-12-25T16:35:26.073Z,3.90
2018-12-25T16:37:30.218Z,3.93
2018-12-25T16:38:30.448Z,3.94
2018-12-25T16:40:34.612Z,3.86
2018-12-25T16:41:34.848Z,3.93
2018-12-25T16:43:39.014Z,3.94
2018-12-25T16:44:39.248Z,3.91
2018-12-25T16:46:43.389Z,3.93
2018-12-25T16:47:43.623Z,3.91
2018-12-25T16:49:47.788Z,3.93
2018-12-25T16:50:48.020Z,3.88
2018-12-25T16:52:52.173Z,3.94
2018-12-25T16:53:53.614Z,3.97
2018-12-25T16:55:56.568Z,3.91
2018-12-25T16:56:56.800Z,3.86
2018-12-25T16:59:00.964Z,3.91
2018-12-25T17:00:01.207Z,3.84
2018-12-25T17:02:05.399Z,3.84
2018-12-25T17:03:05.630Z,3.87
2018-12-25T17:04:58.723Z,3.80
2018-12-25T17:05:58.956Z,3.80
2018-12-25T17:08:03.101Z,3.84
2018-12-25T17:09:03.334Z,3.78
2018-12-25T17:11:07.495Z,3.80
2018-12-25T17:12:07.729Z,3.78
2018-12-25T17:14:11.896Z,3.73
2018-12-25T17:15:12.127Z,3.70
2018-12-25T17:17:16.275Z,3.72
2018-12-25T17:18:16.511Z,3.65
2018-12-25T17:20:20.679Z,3.75
2018-12-25T17:21:20.915Z,3.66
2018-12-25T17:23:25.055Z,3.79
2018-12-25T17:24:25.289Z,3.69
2018-12-25T17:26:29.457Z,3.66
2018-12-25T17:27:29.693Z,3.62
2018-12-25T17:29:33.869Z,3.58
2018-12-25T17:30:34.106Z,3.69
2018-12-25T17:32:38.245Z,3.58
2018-12-25T17:33:38.479Z,3.58
2018-12-25T17:35:42.640Z,3.55
2018-12-25T17:36:42.872Z,3.60
2018-12-25T17:38:47.013Z,3.66
2018-12-25T17:39:47.248Z,3.62
2018-12-25T17:41:51.409Z,3.61
2018-12-25T17:42:52.793Z,3.61
2018-12-25T17:44:44.734Z,3.48
2018-12-25T17:45:44.965Z,3.66
2018-12-25T17:47:49.109Z,3.61
2018-12-25T17:48:49.344Z,3.66
2018-12-25T17:50:53.507Z,3.65
2018-12-25T17:51:53.742Z,3.58
2018-12-25T17:53:57.886Z,3.60
2018-12-25T17:54:58.116Z,3.65
2018-12-25T17:57:02.279Z,3.68
2018-12-25T17:58:02.513Z,3.70
2018-12-25T18:00:06.680Z,3.72
2018-12-25T18:01:06.909Z,3.65
2018-12-25T18:03:11.049Z,3.65
2018-12-25T18:04:11.282Z,3.62
2018-12-25T18:06:15.442Z,3.75
2018-12-25T18:07:15.674Z,3.61
2018-12-25T18:09:19.822Z,3.62
2018-12-25T18:10:20.055Z,3.61
2018-12-25T18:12:24.229Z,3.61
2018-12-25T18:13:24.463Z,3.65
2018-12-25T18:15:28.636Z,3.60
2018-12-25T18:16:30.116Z,3.66
2018-12-25T18:18:33.017Z,3.66
2018-12-25T18:19:33.250Z,3.68
2018-12-25T18:21:37.416Z,3.62
2018-12-25T18:22:37.655Z,3.61
2018-12-25T18:24:30.720Z,3.62
2018-12-25T18:25:30.958Z,3.62
2018-12-25T18:27:35.117Z,3.61
2018-12-25T18:28:35.351Z,3.60
2018-12-25T18:30:39.533Z,3.70
2018-12-25T18:31:39.759Z,3.72
2018-12-25T18:33:43.912Z,3.79
2018-12-25T18:34:44.145Z,3.69
2018-12-25T18:36:48.310Z,3.58
2018-12-25T18:37:48.545Z,3.62
2018-12-25T18:39:52.688Z,3.75
2018-12-25T18:40:52.922Z,3.70
2018-12-25T18:42:57.082Z,3.73
2018-12-25T18:43:57.316Z,3.70
2018-12-25T18:46:01.479Z,3.73
2018-12-25T18:47:01.712Z,3.68
2018-12-25T18:49:05.854Z,3.65
2018-12-25T18:50:06.090Z,3.62
2018-12-25T18:52:10.258Z,3.70
2018-12-25T18:53:10.495Z,3.61
2018-12-25T18:55:03.561Z,3.65
2018-12-25T18:56:03.795Z,3.66
2018-12-25T18:58:07.962Z,3.75
2018-12-25T18:59:08.194Z,3.75
2018-12-25T19:01:12.340Z,3.73
2018-12-25T19:02:12.576Z,3.62
2018-12-25T19:04:16.740Z,3.61
2018-12-25T19:05:16.977Z,3.62
2018-12-25T19:07:21.137Z,3.70
2018-12-25T19:08:21.371Z,3.58
2018-12-25T19:10:25.511Z,3.72
2018-12-25T19:11:25.745Z,3.73
2018-12-25T19:13:29.911Z,3.61
2018-12-25T19:14:30.144Z,3.76
2018-12-25T19:16:34.286Z,3.68
2018-12-25T19:17:34.518Z,3.61
2018-12-25T19:19:38.677Z,3.62
2018-12-25T19:20:38.912Z,3.61
2018-12-25T19:22:43.075Z,3.60
2018-12-25T19:23:43.312Z,3.61
2018-12-25T19:25:47.450Z,3.65
2018-12-25T19:26:47.686Z,3.65
2018-12-25T19:28:51.851Z,3.60
2018-12-25T19:29:52.083Z,3.62
2018-12-25T19:31:56.228Z,3.66
2018-12-25T19:32:56.460Z,3.60
2018-12-25T19:34:49.559Z,3.61
2018-12-25T19:35:49.790Z,3.61
2018-12-25T19:37:53.933Z,3.58
2018-12-25T19:38:54.167Z,3.52
2018-12-25T19:40:58.329Z,3.50
2018-12-25T19:41:58.562Z,3.57
2018-12-25T19:44:02.738Z,3.57
2018-12-25T19:45:02.967Z,3.51
2018-12-25T19:47:07.116Z,3.45
2018-12-25T19:48:07.349Z,3.50
2018-12-25T19:50:11.515Z,3.52
2018-12-25T19:51:11.749Z,3.48
2018-12-25T19:53:15.914Z,3.52
2018-12-25T19:54:16.148Z,3.42
2018-12-25T19:56:20.295Z,3.42
2018-12-25T19:57:20.536Z,3.47
2018-12-25T19:59:24.704Z,3.45
2018-12-25T20:00:24.936Z,3.54
2018-12-25T20:02:29.080Z,3.42
2018-12-25T20:03:29.316Z,3.43
2018-12-25T20:05:33.477Z,3.51
2018-12-25T20:06:33.716Z,3.48
2018-12-25T20:08:37.881Z,3.48
2018-12-25T20:09:38.116Z,3.55
2018-12-25T20:11:42.272Z,3.54
2018-12-25T20:12:42.504Z,3.43
2018-12-25T20:14:35.608Z,3.42
2018-12-25T20:15:35.839Z,3.39
2018-12-25T20:17:40.001Z,3.42
2018-12-25T20:18:40.234Z,3.50
2018-12-25T20:20:44.409Z,3.33